Time;durP1;ratioP1;P1;durP2;ratioP2;P2;SDS_P1;SDS_P2;PMS_P1;PMS_P2;Temp;Humidity;BMP_temperature;BMP_pressure;BME280_temperature;BME280_humidity;BME280_pressure;Samples;Min_cycle;Max_cycle;Signal;HPM_P1;HPM_P2
2023/01/20 00:02:15;;;;;;;11.77;4.25;;;;;;;2.43;58.87;97201.00;5356224;26;20027;-91
2023/01/20 00:04:54;;;;;;;10.82;3.90;;;;;;;2.78;58.44;97184.88;5356458;26;20074;-91
2023/01/20 00:07:27;;;;;;;9.63;3.42;;;;;;;2.47;59.34;97195.81;5338005;26;20042;-91
2023/01/20 00:09:58;;;;;;;12.18;4.28;;;;;;;2.58;58.77;97201.47;5356213;26;20055;-91
2023/01/20 00:12:35;;;;;;;11.38;4.47;;;;;;;3.17;57.80;97200.81;5337501;26;20076;-91
2023/01/20 00:15:23;;;;;;;13.18;3.70;;;;;;;3.32;57.03;97176.62;5355962;26;20067;-91
2023/01/20 00:17:56;;;;;;;12.55;3.95;;;;;;;3.28;57.71;97205.59;5355653;26;20064;-91
2023/01/20 00:20:41;;;;;;;9.95;4.05;;;;;;;3.30;57.52;97186.03;5355910;26;20061;-91
2023/01/20 00:23:13;;;;;;;11.93;4.28;;;;;;;3.44;56.74;97192.41;5337551;26;20401;-91
2023/01/20 00:25:40;;;;;;;12.40;4.30;;;;;;;3.56;56.93;97192.94;5356390;26;20071;-91
2023/01/20 00:31:24;;;;;;;12.02;4.87;;;;;;;3.44;57.07;97197.50;5356208;26;20025;-91
2023/01/20 00:34:07;;;;;;;11.35;4.25;;;;;;;4.14;54.99;97211.63;5336660;26;20054;-91
2023/01/20 00:36:39;;;;;;;11.52;3.95;;;;;;;4.49;54.26;97205.44;5356296;26;20017;-91
2023/01/20 00:39:17;;;;;;;8.27;3.33;;;;;;;4.13;53.97;97194.66;5355665;26;20088;-91
2023/01/20 00:41:53;;;;;;;11.00;4.00;;;;;;;4.02;54.95;97190.69;5355486;26;20060;-91
2023/01/20 00:44:37;;;;;;;12.68;4.85;;;;;;;3.05;57.40;97189.22;5356423;26;20091;-91
2023/01/20 00:47:30;;;;;;;11.45;4.03;;;;;;;4.20;55.12;97198.69;5334223;26;20071;-91
2023/01/20 00:50:00;;;;;;;9.93;4.07;;;;;;;4.14;54.48;97203.97;5354528;26;20068;-91
2023/01/20 00:52:38;;;;;;;9.93;3.58;;;;;;;4.19;54.46;97210.63;5356168;26;20119;-91
2023/01/20 00:55:10;;;;;;;11.07;4.35;;;;;;;3.51;56.56;97190.53;5337000;26;20048;-91
2023/01/20 00:57:39;;;;;;;11.77;3.87;;;;;;;3.57;57.04;97189.50;5355935;26;20093;-91
2023/01/20 01:00:13;;;;;;;11.40;3.62;;;;;;;3.07;58.60;97207.00;5337146;26;20062;-91
2023/01/20 01:02:51;;;;;;;13.88;4.93;;;;;;;4.03;56.44;97205.13;5336461;26;20070;-91
2023/01/20 01:05:29;;;;;;;13.35;4.70;;;;;;;3.45;57.22;97188.97;5356042;26;20028;-91
2023/01/20 01:08:14;;;;;;;12.70;4.40;;;;;;;4.09;56.27;97200.72;5356943;26;20027;-91
2023/01/20 01:11:20;;;;;;;13.40;4.87;;;;;;;4.30;55.83;97205.19;5337349;26;20066;-91
2023/01/20 01:14:06;;;;;;;12.95;4.82;;;;;;;4.65;54.41;97219.37;5339121;26;20117;-91
2023/01/20 01:16:41;;;;;;;14.32;5.43;;;;;;;4.59;54.49;97227.25;5356017;26;20048;-91
2023/01/20 01:19:17;;;;;;;13.52;4.53;;;;;;;5.42;51.02;97215.06;5356457;26;20066;-91
2023/01/20 01:21:57;;;;;;;13.75;4.75;;;;;;;5.08;52.26;97228.19;5336762;26;20068;-91
2023/01/20 01:24:32;;;;;;;12.80;5.12;;;;;;;4.75;52.99;97218.19;5355516;26;20123;-91
2023/01/20 01:27:10;;;;;;;11.95;4.70;;;;;;;4.60;53.84;97201.66;5356134;26;20028;-91
2023/01/20 01:29:47;;;;;;;14.85;5.10;;;;;;;5.18;51.54;97211.66;5356044;26;20068;-91
2023/01/20 01:32:39;;;;;;;13.38;5.03;;;;;;;4.73;53.02;97203.81;5336645;26;20025;-91
2023/01/20 01:35:19;;;;;;;12.50;4.87;;;;;;;3.09;57.88;97192.53;5336757;26;20044;-91
2023/01/20 01:37:51;;;;;;;12.55;4.70;;;;;;;4.46;54.31;97202.97;5337244;26;20493;-91
2023/01/20 01:40:59;;;;;;;14.40;5.43;;;;;;;4.54;53.81;97190.78;5356454;26;20025;-91
2023/01/20 01:43:35;;;;;;;14.70;5.15;;;;;;;4.20;54.11;97179.09;5355985;26;20024;-91
2023/01/20 01:46:06;;;;;;;12.70;4.72;;;;;;;3.20;58.32;97193.09;5355815;26;20033;-91
2023/01/20 01:49:22;;;;;;;13.70;4.70;;;;;;;3.83;57.54;97193.84;5336754;26;20055;-91
2023/01/20 01:52:14;;;;;;;14.02;5.15;;;;;;;3.92;56.56;97185.91;5356009;26;20660;-91
2023/01/20 01:55:09;;;;;;;11.50;4.40;;;;;;;4.62;54.25;97201.59;5338961;26;20462;-91
2023/01/20 01:57:45;;;;;;;16.17;5.20;;;;;;;4.48;54.38;97214.84;5338446;26;20029;-91
2023/01/20 02:00:32;;;;;;;11.27;3.78;;;;;;;5.30;51.75;97212.94;5356887;26;20057;-91
2023/01/20 02:02:59;;;;;;;12.00;4.22;;;;;;;4.01;54.70;97196.69;5357425;26;20044;-91
2023/01/20 02:05:34;;;;;;;10.48;4.53;;;;;;;4.48;54.52;97199.50;5337295;26;20403;-91
2023/01/20 02:08:02;;;;;;;12.05;4.55;;;;;;;4.27;54.71;97197.63;5356636;26;20032;-91
2023/01/20 02:10:44;;;;;;;13.00;4.95;;;;;;;4.34;55.08;97210.13;5356979;26;20068;-91
2023/01/20 02:13:12;;;;;;;12.25;4.65;;;;;;;3.49;58.07;97210.94;5337300;26;20057;-91
2023/01/20 02:15:54;;;;;;;12.10;5.00;;;;;;;4.31;55.61;97217.06;5337301;26;20032;-91
2023/01/20 02:19:03;;;;;;;12.02;4.43;;;;;;;5.55;51.71;97200.97;5338245;26;20111;-91
2023/01/20 02:22:02;;;;;;;15.40;5.32;;;;;;;4.17;55.35;97196.25;5338000;26;20109;-91
2023/01/20 02:24:42;;;;;;;14.60;4.30;;;;;;;3.24;59.15;97193.84;5357938;26;20057;-91
2023/01/20 02:27:22;;;;;;;12.68;4.60;;;;;;;4.51;55.83;97201.94;5357467;26;20035;-91
2023/01/20 02:30:27;;;;;;;11.85;4.68;;;;;;;4.15;56.64;97203.09;5338224;26;20080;-89
2023/01/20 02:33:14;;;;;;;14.52;5.70;;;;;;;4.26;56.68;97203.63;5357135;26;20052;-91
2023/01/20 02:35:47;;;;;;;12.37;4.82;;;;;;;3.55;58.26;97181.91;5337770;26;20069;-91
2023/01/20 02:38:35;;;;;;;10.63;4.43;;;;;;;3.28;59.66;97160.56;5356677;26;20075;-91
2023/01/20 02:41:26;;;;;;;14.18;4.00;;;;;;;3.72;58.03;97176.28;5356647;26;20033;-91
2023/01/20 02:44:26;;;;;;;11.32;4.45;;;;;;;3.36;58.67;97179.03;5337268;26;20061;-91
2023/01/20 02:47:22;;;;;;;12.85;5.10;;;;;;;4.18;56.18;97185.97;5356300;26;20025;-91
2023/01/20 02:50:09;;;;;;;12.77;4.55;;;;;;;3.84;57.35;97187.87;5335902;26;20064;-91
2023/01/20 02:52:42;;;;;;;16.42;5.70;;;;;;;4.06;57.15;97182.09;5356836;26;20071;-91
2023/01/20 02:55:15;;;;;;;15.75;5.00;;;;;;;4.14;57.39;97197.16;5336543;26;20106;-91
2023/01/20 02:57:55;;;;;;;13.60;5.40;;;;;;;3.54;59.87;97193.00;5337864;26;20088;-91
2023/01/20 03:00:43;;;;;;;13.07;3.62;;;;;;;3.25;60.88;97198.06;5337931;26;20375;-91
2023/01/20 03:03:30;;;;;;;14.52;4.97;;;;;;;2.89;62.76;97195.63;5318111;26;20044;-91
2023/01/20 03:06:08;;;;;;;15.15;5.12;;;;;;;2.82;63.47;97182.19;5321634;26;20053;-91
2023/01/20 03:08:50;;;;;;;13.85;5.53;;;;;;;2.59;64.83;97185.31;5336985;26;20044;-91
2023/01/20 03:11:20;;;;;;;12.75;5.45;;;;;;;3.11;63.71;97198.44;5337790;26;20076;-90
2023/01/20 03:14:01;;;;;;;14.45;4.82;;;;;;;3.01;63.49;97191.91;5357212;26;20036;-91
2023/01/20 03:16:37;;;;;;;10.77;4.15;;;;;;;2.77;65.39;97189.13;5319318;26;20062;-91
2023/01/20 03:19:08;;;;;;;13.73;5.28;;;;;;;1.97;68.33;97185.09;5338460;26;20031;-91
2023/01/20 03:21:39;;;;;;;14.15;5.53;;;;;;;2.00;68.82;97181.63;5319192;26;20106;-91
2023/01/20 03:24:17;;;;;;;;;;;;;;;1.83;70.50;97173.56;5321701;26;20730;-91
2023/01/20 03:26:54;;;;;;;13.55;4.75;;;;;;;1.98;70.08;97178.28;5337586;26;19940;-91
2023/01/20 03:29:24;;;;;;;14.43;5.30;;;;;;;1.81;69.46;97168.50;5337963;26;20053;-91
2023/01/20 03:32:06;;;;;;;13.70;5.55;;;;;;;2.01;68.82;97168.88;5356820;26;20044;-91
2023/01/20 03:34:43;;;;;;;15.73;6.20;;;;;;;2.10;69.06;97185.62;5356749;26;20053;-91
2023/01/20 03:37:18;;;;;;;14.65;5.30;;;;;;;2.75;66.27;97198.50;5338341;26;20106;-91
2023/01/20 03:40:20;;;;;;;16.17;5.22;;;;;;;2.51;66.50;97206.75;5338529;26;20025;-91
2023/01/20 03:43:15;;;;;;;15.77;5.97;;;;;;;2.43;66.01;97216.25;5357621;26;20072;-91
2023/01/20 03:46:01;;;;;;;15.10;5.37;;;;;;;3.30;62.59;97206.44;5311879;26;20117;-91
2023/01/20 03:48:55;;;;;;;16.23;6.40;;;;;;;3.98;60.20;97206.16;5337069;26;20065;-91
2023/01/20 03:51:33;;;;;;;16.52;6.32;;;;;;;2.56;64.95;97192.22;5356330;26;20029;-91
2023/01/20 03:54:18;;;;;;;15.95;6.10;;;;;;;2.92;64.04;97220.16;5338180;26;20409;-91
2023/01/20 03:57:05;;;;;;;16.75;5.55;;;;;;;2.85;64.43;97235.59;5320809;26;20033;-91
2023/01/20 03:59:43;;;;;;;;;;;;;;;2.74;65.51;97234.19;5338088;26;20036;-91
2023/01/20 04:02:21;;;;;;;19.30;5.70;;;;;;;2.69;65.07;97230.94;5337556;26;19936;-91
2023/01/20 04:05:07;;;;;;;16.77;6.28;;;;;;;2.82;64.50;97220.41;5336890;26;20033;-91
2023/01/20 04:07:36;;;;;;;17.83;6.53;;;;;;;2.67;64.77;97197.03;5337434;26;20039;-90
2023/01/20 04:10:13;;;;;;;14.63;5.95;;;;;;;2.52;65.62;97153.22;5336653;26;20060;-91
2023/01/20 04:12:57;;;;;;;16.73;6.35;;;;;;;2.74;64.44;97148.41;5335970;26;20048;-91
2023/01/20 04:15:56;;;;;;;16.67;6.07;;;;;;;2.77;64.79;97162.81;5356175;26;20148;-91
2023/01/20 04:18:29;;;;;;;16.35;5.97;;;;;;;2.28;65.69;97182.69;5322385;26;20029;-91
2023/01/20 04:21:32;;;;;;;17.05;6.32;;;;;;;2.31;65.73;97176.66;5356315;26;20407;-90
2023/01/20 04:24:28;;;;;;;;;;;;;;;;;;;;;
2023/01/20 04:27:04;;;;;;;18.45;7.37;;;;;;;2.82;64.14;97158.41;5339285;26;20620;-91
2023/01/20 04:29:33;;;;;;;15.63;5.40;;;;;;;2.17;67.73;97165.97;5357455;26;20072;-90
2023/01/20 04:32:04;;;;;;;17.02;5.68;;;;;;;3.25;62.41;97175.09;5357520;26;20056;-90
2023/01/20 04:34:33;;;;;;;20.60;6.62;;;;;;;3.28;62.79;97164.81;5338235;26;20072;-90
2023/01/20 04:37:08;;;;;;;17.83;6.65;;;;;;;3.35;61.33;97159.50;5357359;26;20071;-91
2023/01/20 04:39:40;;;;;;;17.50;6.50;;;;;;;3.55;61.03;97153.84;5357094;26;20029;-91
2023/01/20 04:42:11;;;;;;;19.10;7.55;;;;;;;3.77;60.31;97159.97;5358049;26;20048;-91
2023/01/20 04:44:42;;;;;;;17.58;6.87;;;;;;;3.01;62.69;97172.34;5321853;26;20067;-90
2023/01/20 04:47:14;;;;;;;20.52;7.22;;;;;;;3.40;60.75;97161.91;5357545;26;20062;-91
2023/01/20 04:49:44;;;;;;;17.08;6.68;;;;;;;3.09;62.12;97157.69;5357085;26;20073;-89
2023/01/20 04:52:19;;;;;;;18.05;6.53;;;;;;;3.97;58.85;97156.00;5338955;26;20065;-90
2023/01/20 04:54:51;;;;;;;18.95;6.68;;;;;;;4.12;59.03;97157.22;5338737;26;20052;-91
2023/01/20 04:57:22;;;;;;;19.87;6.40;;;;;;;3.57;61.15;97161.44;5339204;26;20036;-90
2023/01/20 04:59:49;;;;;;;16.02;6.53;;;;;;;3.00;63.59;97152.84;5357667;26;20142;-90
2023/01/20 05:02:19;;;;;;;15.30;5.72;;;;;;;3.30;62.99;97143.53;5358349;26;20058;-91
2023/01/20 05:04:48;;;;;;;13.50;4.97;;;;;;;2.23;66.75;97146.31;5357860;26;20119;-91
2023/01/20 05:07:19;;;;;;;15.20;5.75;;;;;;;1.94;69.77;97148.72;5337740;26;20036;-91
2023/01/20 05:09:51;;;;;;;16.62;5.68;;;;;;;0.96;74.35;97155.84;5319371;26;20411;-89
2023/01/20 05:12:19;;;;;;;15.13;5.60;;;;;;;1.48;73.52;97144.63;5337671;26;20025;-91
2023/01/20 05:14:49;;;;;;;16.25;7.03;;;;;;;2.52;68.86;97143.03;5338644;26;20035;-91
2023/01/20 05:17:25;;;;;;;14.20;5.93;;;;;;;2.57;68.89;97158.22;5357800;26;20072;-91
2023/01/20 05:19:59;;;;;;;15.77;6.07;;;;;;;2.15;69.42;97152.47;5357940;26;20109;-91
2023/01/20 05:22:32;;;;;;;16.35;7.32;;;;;;;3.48;64.88;97172.75;5338413;26;20025;-90
2023/01/20 05:25:05;;;;;;;15.23;6.43;;;;;;;3.81;62.49;97167.53;5358353;26;20039;-91
2023/01/20 05:27:35;;;;;;;15.85;6.70;;;;;;;3.61;62.42;97180.87;5358142;26;20078;-91
2023/01/20 05:30:17;;;;;;;14.85;6.37;;;;;;;3.64;62.04;97191.84;5357662;26;20068;-91
2023/01/20 05:32:51;;;;;;;15.60;6.22;;;;;;;3.09;62.73;97179.81;5339165;26;20048;-91
2023/01/20 05:35:18;;;;;;;15.38;6.53;;;;;;;4.13;59.85;97200.59;5336665;26;20040;-90
2023/01/20 05:37:51;;;;;;;15.38;6.10;;;;;;;3.41;61.03;97192.50;5356330;26;20095;-91
2023/01/20 05:40:22;;;;;;;15.98;6.07;;;;;;;3.84;59.49;97213.41;5356649;26;20060;-91
2023/01/20 05:42:58;;;;;;;14.93;6.00;;;;;;;4.14;58.77;97212.47;5336167;26;20091;-91
2023/01/20 05:45:31;;;;;;;15.95;6.85;;;;;;;5.43;54.67;97211.63;5336823;26;20064;-91
2023/01/20 05:48:05;;;;;;;17.27;7.10;;;;;;;5.56;53.50;97222.28;5336481;26;20063;-91
2023/01/20 05:50:37;;;;;;;16.67;6.85;;;;;;;4.62;57.31;97222.03;5336426;26;20122;-90
2023/01/20 05:53:07;;;;;;;17.10;6.30;;;;;;;5.69;53.79;97218.37;5356285;26;20025;-91
2023/01/20 05:55:44;;;;;;;15.98;6.35;;;;;;;6.01;52.14;97210.34;5355873;26;20063;-91
2023/01/20 05:58:27;;;;;;;15.97;6.60;;;;;;;5.76;52.86;97199.34;5336774;26;20120;-91
2023/01/20 06:01:09;;;;;;;16.48;6.40;;;;;;;4.57;56.16;97206.88;5355389;26;20112;-91
2023/01/20 06:03:39;;;;;;;19.37;6.20;;;;;;;3.54;61.49;97220.22;5355571;26;20120;-91
2023/01/20 06:06:36;;;;;;;15.90;6.68;;;;;;;4.82;57.11;97213.72;5335459;26;20063;-91
2023/01/20 06:09:09;;;;;;;17.62;7.47;;;;;;;4.85;55.93;97221.28;5334447;26;20036;-91
2023/01/20 06:11:47;;;;;;;14.30;6.80;;;;;;;5.41;55.07;97219.34;5333262;26;20056;-91
2023/01/20 06:14:14;;;;;;;20.35;7.85;;;;;;;5.46;55.14;97216.63;5339400;26;20062;-87
2023/01/20 06:16:41;;;;;;;19.60;7.75;;;;;;;5.60;54.11;97216.12;5347938;26;20097;-85
2023/01/20 06:19:08;;;;;;;;;;;;;;;4.94;56.21;97210.75;5349518;26;20057;-87
2023/01/20 06:21:35;;;;;;;18.40;7.47;;;;;;;5.61;54.55;97215.25;5348045;26;19967;-87
2023/01/20 06:24:02;;;;;;;17.98;7.35;;;;;;;5.36;54.73;97211.00;5346448;26;20059;-87
2023/01/20 06:26:29;;;;;;;17.30;7.82;;;;;;;4.61;57.85;97210.16;5345797;26;20523;-87
2023/01/20 06:29:00;;;;;;;;;;;;;;;4.39;59.59;97214.28;5346747;26;20057;-87
2023/01/20 06:31:27;;;;;;;19.67;7.10;;;;;;;4.51;58.62;97216.44;5345924;26;19985;-86
2023/01/20 06:33:55;;;;;;;21.23;7.85;;;;;;;4.74;57.94;97210.59;5346350;26;20513;-87
2023/01/20 06:36:22;;;;;;;21.25;8.88;;;;;;;5.24;56.43;97211.44;5326612;26;20052;-87
2023/01/20 06:38:49;;;;;;;21.83;8.38;;;;;;;5.30;56.08;97211.22;5345785;26;20060;-86
2023/01/20 06:41:18;;;;;;;19.15;8.48;;;;;;;4.55;57.68;97215.44;5346103;26;20091;-86
2023/01/20 06:43:45;;;;;;;19.48;8.15;;;;;;;4.52;58.59;97220.66;5346360;26;20062;-86
2023/01/20 06:46:14;;;;;;;18.52;8.07;;;;;;;4.72;58.00;97223.41;5345275;26;20319;-86
2023/01/20 06:48:42;;;;;;;17.83;7.47;;;;;;;3.94;59.97;97214.81;5346181;26;20223;-86
2023/01/20 06:51:11;;;;;;;18.90;7.93;;;;;;;4.11;60.21;97216.84;5346180;26;20128;-86
2023/01/20 06:53:38;;;;;;;19.80;8.38;;;;;;;4.28;59.96;97215.44;5345752;26;20394;-86
2023/01/20 06:56:05;;;;;;;20.42;7.87;;;;;;;3.56;62.03;97214.19;5346143;26;20045;-86
2023/01/20 06:58:33;;;;;;;20.12;9.32;;;;;;;3.66;62.76;97212.22;5346334;26;20060;-87
2023/01/20 07:01:07;;;;;;;19.55;7.82;;;;;;;2.66;66.73;97208.94;5326137;26;20441;-87
2023/01/20 07:03:35;;;;;;;20.02;8.82;;;;;;;2.47;68.24;97212.78;5326327;26;20063;-87
2023/01/20 07:06:14;;;;;;;18.67;8.07;;;;;;;2.96;66.03;97214.94;5345847;26;20048;-85
2023/01/20 07:08:42;;;;;;;19.15;8.48;;;;;;;3.47;64.42;97222.09;5325740;26;20068;-85
2023/01/20 07:11:09;;;;;;;19.70;7.90;;;;;;;3.47;64.62;97217.81;5345741;26;20382;-86
2023/01/20 07:13:40;;;;;;;21.12;7.80;;;;;;;2.80;66.78;97223.88;5345318;26;20366;-84
2023/01/20 07:16:07;;;;;;;17.75;7.85;;;;;;;2.72;66.52;97226.59;5345803;26;20546;-82
2023/01/20 07:18:37;;;;;;;18.50;8.50;;;;;;;3.11;66.19;97231.56;5346011;26;20060;-82
2023/01/20 07:21:05;;;;;;;18.80;8.98;;;;;;;3.47;65.76;97229.72;5345171;26;20064;-80
2023/01/20 07:23:32;;;;;;;19.60;8.00;;;;;;;3.49;64.29;97231.34;5345873;26;20102;-81
2023/01/20 07:26:00;;;;;;;21.80;8.38;;;;;;;3.80;62.80;97222.84;5345666;26;20399;-81
2023/01/20 07:28:27;;;;;;;23.73;10.23;;;;;;;3.39;64.78;97219.72;5345204;26;20126;-81
2023/01/20 07:30:54;;;;;;;20.45;8.55;;;;;;;3.57;63.57;97223.50;5325893;26;20064;-82
2023/01/20 07:33:22;;;;;;;20.30;9.10;;;;;;;3.30;65.61;97216.63;5345574;26;20162;-80
2023/01/20 07:35:53;;;;;;;;;;;;;;;2.97;67.88;97219.16;5345535;26;20048;-81
2023/01/20 07:38:20;;;;;;;15.32;6.05;;;;;;;3.35;66.66;97223.25;5345183;26;19963;-82
2023/01/20 07:40:47;;;;;;;21.10;7.85;;;;;;;4.27;61.23;97226.56;5325988;26;20060;-81
2023/01/20 07:43:14;;;;;;;18.40;7.90;;;;;;;3.29;64.60;97209.81;5344912;26;20051;-81
2023/01/20 07:45:41;;;;;;;19.05;7.25;;;;;;;2.60;67.87;97219.25;5325646;26;20049;-82
2023/01/20 07:48:08;;;;;;;17.55;8.45;;;;;;;3.39;65.60;97214.62;5346136;26;20080;-83
2023/01/20 07:50:35;;;;;;;19.52;7.57;;;;;;;2.02;72.40;97228.22;5345021;26;20114;-83
2023/01/20 07:53:02;;;;;;;25.33;8.43;;;;;;;2.83;69.30;97232.25;5345255;26;20056;-84
2023/01/20 07:55:29;;;;;;;18.00;8.20;;;;;;;2.83;68.44;97236.53;5325851;26;20327;-83
2023/01/20 07:57:57;;;;;;;19.23;7.87;;;;;;;3.39;65.30;97236.75;5345917;26;20052;-83
2023/01/20 08:00:24;;;;;;;20.77;8.48;;;;;;;3.55;65.96;97242.28;5326808;26;20101;-83
2023/01/20 08:02:51;;;;;;;17.45;6.65;;;;;;;3.17;67.31;97246.69;5346366;26;20391;-83
2023/01/20 08:05:18;;;;;;;;;;;;;;;3.00;67.88;97241.22;5346800;26;20406;-84
2023/01/20 08:07:49;;;;;;;16.60;6.80;;;;;;;2.64;69.54;97238.69;5346652;26;19968;-84
2023/01/20 08:10:16;;;;;;;19.17;8.07;;;;;;;3.18;68.00;97250.91;5346285;26;20056;-84
2023/01/20 08:12:43;;;;;;;22.02;9.25;;;;;;;3.39;67.39;97252.88;5346564;26;20049;-83
2023/01/20 08:15:10;;;;;;;19.45;8.38;;;;;;;3.16;67.49;97263.69;5346466;26;20066;-86
2023/01/20 08:17:37;;;;;;;20.35;8.00;;;;;;;3.48;67.06;97254.34;5346054;26;20398;-84
2023/01/20 08:20:04;;;;;;;16.95;8.00;;;;;;;4.04;64.50;97260.44;5346455;26;20093;-84
2023/01/20 08:22:33;;;;;;;23.40;9.45;;;;;;;3.76;64.77;97259.53;5326823;26;20059;-83
2023/01/20 08:25:00;;;;;;;20.52;9.52;;;;;;;4.58;62.45;97261.38;5346067;26;20110;-81
2023/01/20 08:27:27;;;;;;;;;;;;;;;4.19;63.56;97268.50;5347031;26;20071;-82
2023/01/20 08:29:54;;;;;;;18.65;7.68;;;;;;;4.58;61.84;97269.03;5346450;26;20015;-82
2023/01/20 08:32:21;;;;;;;19.52;8.77;;;;;;;3.92;63.51;97270.97;5346044;26;20109;-82
2023/01/20 08:34:48;;;;;;;18.48;8.13;;;;;;;4.84;60.49;97265.63;5346357;26;20054;-83
2023/01/20 08:37:15;;;;;;;18.65;7.65;;;;;;;4.01;63.03;97264.78;5346471;26;20064;-83
2023/01/20 08:39:42;;;;;;;20.05;9.00;;;;;;;4.70;61.67;97266.09;5346191;26;20056;-82
2023/01/20 08:42:09;;;;;;;19.92;8.93;;;;;;;5.02;60.22;97265.03;5346338;26;20048;-83
2023/01/20 08:44:35;;;;;;;23.75;10.13;;;;;;;4.89;59.93;97274.84;5346422;26;20110;-81
2023/01/20 08:47:02;;;;;;;20.90;9.38;;;;;;;4.50;62.16;97274.38;5345811;26;20064;-81
2023/01/20 08:49:29;;;;;;;20.95;9.25;;;;;;;5.13;60.68;97283.41;5346546;26;20068;-82
2023/01/20 08:51:56;;;;;;;18.45;8.40;;;;;;;5.13;59.42;97287.69;5345752;26;20056;-82
2023/01/20 08:54:24;;;;;;;20.95;9.57;;;;;;;3.42;66.00;97282.59;5326746;26;20098;-80
2023/01/20 08:56:52;;;;;;;19.95;8.35;;;;;;;3.87;64.83;97290.69;5346707;26;20410;-80
2023/01/20 08:59:19;;;;;;;19.83;9.48;;;;;;;4.42;63.41;97280.59;5326381;26;20121;-80
2023/01/20 09:01:46;;;;;;;17.05;7.95;;;;;;;4.82;61.45;97273.34;5346258;26;20326;-81
2023/01/20 09:04:13;;;;;;;;;;;;;;;4.53;61.44;97268.31;5346732;26;20469;-82
2023/01/20 09:06:45;;;;;;;17.75;6.10;;;;;;;4.33;64.18;97271.47;5345730;26;19968;-81
2023/01/20 09:09:13;;;;;;;17.80;8.02;;;;;;;3.65;66.72;97266.66;5346443;26;20059;-81
2023/01/20 09:11:43;;;;;;;21.65;8.00;;;;;;;4.07;65.59;97267.16;5346182;26;20117;-81
2023/01/20 09:14:10;;;;;;;17.52;7.78;;;;;;;4.57;63.68;97270.75;5345673;26;20044;-81
2023/01/20 09:16:37;;;;;;;18.35;7.43;;;;;;;4.76;62.73;97262.47;5346305;26;20057;-82
2023/01/20 09:19:04;;;;;;;;;;;;;;;4.32;64.07;97262.16;5346756;26;20060;-81
2023/01/20 09:21:31;;;;;;;15.27;6.10;;;;;;;4.48;64.09;97263.38;5345960;26;19959;-82
2023/01/20 09:23:59;;;;;;;17.52;8.07;;;;;;;3.81;66.61;97265.34;5346212;26;20412;-82
2023/01/20 09:26:25;;;;;;;19.70;8.25;;;;;;;3.62;67.40;97277.78;5346263;26;20064;-82
2023/01/20 09:29:07;;;;;;;17.87;7.37;;;;;;;2.93;71.57;97267.72;5345997;26;20060;-81
2023/01/20 09:31:44;;;;;;;19.70;8.00;;;;;;;3.77;67.77;97263.75;5346195;26;20388;-81
2023/01/20 09:34:17;;;;;;;17.17;7.78;;;;;;;2.65;72.67;97265.81;5345946;26;20055;-81
2023/01/20 09:36:45;;;;;;;15.70;5.93;;;;;;;3.64;68.64;97267.53;5346279;26;20104;-81
2023/01/20 09:44:51;;;;;;;15.98;6.65;;;;;;;3.40;69.80;97262.22;5346368;26;20048;-82
2023/01/20 09:47:29;;;;;;;17.75;7.68;;;;;;;3.95;68.09;97259.88;5326223;26;20079;-82
2023/01/20 09:53:15;;;;;;;19.30;8.15;;;;;;;3.67;68.12;97262.34;5346132;26;20062;-82
2023/01/20 09:55:47;;;;;;;21.77;8.70;;;;;;;4.47;64.06;97256.59;5345877;26;20048;-83
2023/01/20 09:58:17;;;;;;;19.62;8.90;;;;;;;4.53;63.72;97253.00;5346176;26;20692;-83
2023/01/20 10:00:49;;;;;;;17.35;7.07;;;;;;;5.05;61.83;97256.44;5345866;26;20411;-82
2023/01/20 10:03:28;;;;;;;19.62;8.07;;;;;;;3.85;65.99;97248.25;5345911;26;20094;-86
2023/01/20 10:05:57;;;;;;;17.65;7.43;;;;;;;4.05;66.13;97248.50;5346268;26;20052;-81
2023/01/20 10:08:59;;;;;;;19.00;7.62;;;;;;;3.66;66.21;97241.09;5326491;26;20064;-80
2023/01/20 10:11:40;;;;;;;19.67;8.57;;;;;;;3.72;66.86;97234.97;5322588;26;20121;-82
2023/01/20 10:14:35;;;;;;;18.27;8.65;;;;;;;3.89;66.74;97235.34;5326348;26;20391;-82
2023/01/20 10:17:24;;;;;;;18.98;8.40;;;;;;;3.36;67.24;97230.03;5314079;26;20055;-80
2023/01/20 10:20:04;;;;;;;18.62;8.30;;;;;;;4.42;64.70;97222.66;5326511;26;20064;-80
2023/01/20 10:22:42;;;;;;;20.92;8.75;;;;;;;4.20;66.07;97214.00;5346268;26;20064;-82
2023/01/20 10:25:17;;;;;;;20.65;8.15;;;;;;;4.09;66.19;97219.44;5326021;26;20056;-81
2023/01/20 10:27:50;;;;;;;19.33;8.70;;;;;;;4.31;64.91;97219.63;5346291;26;20044;-82
2023/01/20 10:30:18;;;;;;;17.37;8.20;;;;;;;4.85;63.20;97224.69;5326063;26;20064;-82
2023/01/20 10:32:56;;;;;;;18.40;9.18;;;;;;;4.81;63.19;97223.12;5326341;26;20091;-83
2023/01/20 10:35:28;;;;;;;19.12;8.15;;;;;;;5.19;60.79;97215.88;5346140;26;20451;-83
2023/01/20 10:37:57;;;;;;;19.40;8.52;;;;;;;5.10;61.96;97214.47;5325904;26;20053;-81
2023/01/20 10:40:43;;;;;;;17.73;8.27;;;;;;;4.61;62.15;97216.09;5345823;26;20202;-81
2023/01/20 10:43:12;;;;;;;19.55;8.90;;;;;;;4.32;63.67;97211.06;5345971;26;20061;-82
2023/01/20 10:46:01;;;;;;;18.00;8.55;;;;;;;4.84;62.24;97215.34;5345454;26;20066;-82
2023/01/20 10:48:31;;;;;;;18.75;8.35;;;;;;;4.88;61.62;97216.91;5346096;26;20105;-81
2023/01/20 10:51:09;;;;;;;20.42;9.00;;;;;;;4.95;61.95;97222.66;5345676;26;20061;-82
2023/01/20 10:53:57;;;;;;;19.58;8.32;;;;;;;5.72;59.49;97220.81;5345678;26;20061;-82
2023/01/20 10:56:35;;;;;;;19.98;8.52;;;;;;;4.98;61.72;97232.78;5326322;26;20056;-82
2023/01/20 10:59:08;;;;;;;19.85;8.68;;;;;;;4.90;62.23;97225.38;5325676;26;20079;-82
2023/01/20 11:01:35;;;;;;;19.12;8.18;;;;;;;4.81;62.64;97237.62;5326175;26;20075;-82
2023/01/20 11:04:03;;;;;;;18.65;8.52;;;;;;;5.29;61.15;97240.25;5346060;26;20344;-81
2023/01/20 11:06:30;;;;;;;21.70;9.52;;;;;;;4.96;62.03;97236.28;5345492;26;20057;-82
2023/01/20 11:09:04;;;;;;;16.25;7.57;;;;;;;4.96;61.23;97241.37;5326268;26;20048;-82
2023/01/20 11:11:31;;;;;;;19.15;9.05;;;;;;;4.71;62.07;97231.12;5326298;26;20065;-81
2023/01/20 11:13:58;;;;;;;22.20;9.63;;;;;;;5.24;60.79;97242.13;5345441;26;20069;-81
2023/01/20 11:16:27;;;;;;;18.77;9.10;;;;;;;5.11;61.23;97241.72;5345673;26;20052;-81
2023/01/20 11:19:03;;;;;;;19.20;8.27;;;;;;;4.50;64.42;97236.03;5345777;26;20059;-81
2023/01/20 11:21:32;;;;;;;21.37;8.35;;;;;;;5.43;59.11;97232.94;5345986;26;20407;-81
2023/01/20 11:23:59;;;;;;;18.48;9.25;;;;;;;5.35;59.60;97234.94;5326192;26;20073;-82
2023/01/20 11:26:34;;;;;;;18.73;8.98;;;;;;;5.72;58.02;97236.16;5345213;26;20444;-82
2023/01/20 11:29:10;;;;;;;19.52;8.82;;;;;;;5.69;58.53;97226.87;5345616;26;20048;-82
2023/01/20 11:31:41;;;;;;;18.77;9.02;;;;;;;5.44;59.17;97224.38;5345709;26;20075;-81
2023/01/20 11:34:31;;;;;;;20.65;9.25;;;;;;;5.23;59.76;97214.91;5326587;26;20067;-81
2023/01/20 11:37:04;;;;;;;19.50;8.73;;;;;;;4.69;61.59;97222.69;5346661;26;20044;-81
2023/01/20 11:39:41;;;;;;;20.02;8.45;;;;;;;5.39;59.47;97227.97;5346790;26;20466;-82
2023/01/20 11:42:15;;;;;;;19.00;7.55;;;;;;;5.26;60.07;97207.09;5346133;26;20056;-82
2023/01/20 11:44:44;;;;;;;18.83;8.57;;;;;;;5.44;59.54;97206.47;5346533;26;20064;-79
2023/01/20 11:47:22;;;;;;;18.92;7.28;;;;;;;5.26;60.00;97208.84;5346094;26;20060;-80
2023/01/20 11:50:07;;;;;;;22.25;9.55;;;;;;;5.22;59.95;97210.66;5346604;26;20101;-80
2023/01/20 11:52:41;;;;;;;20.62;8.93;;;;;;;5.20;61.13;97207.31;5346515;26;20104;-79
2023/01/20 11:55:13;;;;;;;17.62;8.05;;;;;;;4.85;61.25;97198.28;5346031;26;20071;-80
2023/01/20 11:57:46;;;;;;;18.23;7.72;;;;;;;5.45;59.91;97191.94;5346543;26;20054;-80
2023/01/20 12:00:18;;;;;;;20.65;8.38;;;;;;;5.22;60.39;97185.09;5326873;26;20052;-80
2023/01/20 12:03:23;;;;;;;17.50;7.00;;;;;;;4.19;63.95;97187.63;5346176;26;20070;-80
2023/01/20 12:05:55;;;;;;;24.85;9.35;;;;;;;4.15;63.04;97183.53;5346468;26;20370;-79
2023/01/20 12:08:37;;;;;;;22.62;9.45;;;;;;;4.26;64.55;97193.41;5326596;26;20153;-79
2023/01/20 12:11:06;;;;;;;17.95;8.52;;;;;;;4.64;62.71;97189.59;5326601;26;20066;-82
2023/01/20 12:14:24;;;;;;;20.02;8.75;;;;;;;3.29;67.47;97197.06;5326853;26;20064;-80
2023/01/20 12:17:32;;;;;;;20.20;8.27;;;;;;;4.07;65.25;97193.12;5317170;26;20061;-81
2023/01/20 12:20:05;;;;;;;18.42;8.15;;;;;;;4.40;64.87;97196.34;5346544;26;20048;-78
2023/01/20 12:22:53;;;;;;;21.90;8.75;;;;;;;3.49;66.48;97180.34;5346185;26;20052;-80
2023/01/20 12:25:24;;;;;;;15.65;6.45;;;;;;;3.31;69.35;97180.87;5326935;26;20080;-80
2023/01/20 12:28:03;;;;;;;20.55;8.90;;;;;;;2.73;71.86;97195.16;5326753;26;20074;-81